createdAt,value
2017-05-02T00:00:21.938Z,89.69
2017-05-02T00:01:34.737Z,90.45
2017-05-02T00:02:47.528Z,90.17
2017-05-02T00:04:00.325Z,89.59
2017-05-02T00:05:13.126Z,90.17
2017-05-02T00:06:25.922Z,89.69
2017-05-02T00:07:38.237Z,89.59
2017-05-02T00:09:05.108Z,89.98
2017-05-02T00:10:17.918Z,89.98
2017-05-02T00:11:30.723Z,90.45
2017-05-02T00:12:43.515Z,90.65
2017-05-02T00:13:56.314Z,90.07
2017-05-02T00:15:09.120Z,90.65
2017-05-02T00:16:21.913Z,90.26
2017-05-02T00:17:34.706Z,90.55
2017-05-02T00:18:46.580Z,90.17
2017-05-02T00:19:59.377Z,90.26
2017-05-02T00:21:12.171Z,90.6
2017-05-02T00:22:24.481Z,89.78
2017-05-02T00:23:37.277Z,89.98
2017-05-02T00:24:49.838Z,89.59
2017-05-02T00:26:02.638Z,89.78
2017-05-02T00:27:15.427Z,89.78
2017-05-02T00:28:28.224Z,89.54
2017-05-02T00:29:41.023Z,89.36
2017-05-02T00:30:54.066Z,89.78
2017-05-02T00:32:06.864Z,89.36
2017-05-02T00:33:19.652Z,89.4
2017-05-02T00:34:32.483Z,89.5
2017-05-02T00:35:45.534Z,89.16
2017-05-02T00:36:58.330Z,89.45
2017-05-02T00:38:10.641Z,88.87
2017-05-02T00:39:23.442Z,89.54
2017-05-02T00:40:36.242Z,89.45
2017-05-02T00:41:48.810Z,89.07
2017-05-02T00:43:01.606Z,89.16
2017-05-02T00:44:14.397Z,89.26
2017-05-02T00:45:26.712Z,89.45
2017-05-02T00:46:39.506Z,89.36
2017-05-02T00:47:51.825Z,89.3
2017-05-02T00:49:04.616Z,89.16
2017-05-02T00:50:17.407Z,89.54
2017-05-02T00:51:30.202Z,89.36
2017-05-02T00:52:43.002Z,89.45
2017-05-02T00:53:55.802Z,89.45
2017-05-02T00:55:08.118Z,89.93
2017-05-02T00:56:20.917Z,90.03
2017-05-02T00:57:47.782Z,90.12
2017-05-02T00:59:00.618Z,89.54
2017-05-02T01:00:13.413Z,89.64
2017-05-02T01:01:26.211Z,90.22
2017-05-02T01:02:39.254Z,90.22
2017-05-02T01:03:51.567Z,90.41
2017-05-02T01:05:04.364Z,90.12
2017-05-02T01:06:17.165Z,90.51
2017-05-02T01:07:29.475Z,90.41
2017-05-02T01:08:41.792Z,90.89
2017-05-02T01:09:54.588Z,90.51
2017-05-02T01:11:07.398Z,90.7
2017-05-02T01:12:20.196Z,90.6
2017-05-02T01:13:33.245Z,90.31
2017-05-02T01:14:45.557Z,90.6
2017-05-02T01:15:58.348Z,90.31
2017-05-02T01:17:11.205Z,90.6
2017-05-02T01:18:24.001Z,90.51
2017-05-02T01:19:36.567Z,91.28
2017-05-02T01:20:49.362Z,90.8
2017-05-02T01:22:02.162Z,90.8
2017-05-02T01:23:14.486Z,90.89
2017-05-02T01:24:27.297Z,90.84
2017-05-02T01:25:39.629Z,91.08
2017-05-02T01:26:51.950Z,91.71
2017-05-02T01:28:04.749Z,91.04
2017-05-02T01:29:17.561Z,91.61
2017-05-02T01:30:30.362Z,91.28
2017-05-02T01:31:43.158Z,91.75
2017-05-02T01:32:55.956Z,91.66
2017-05-02T01:34:08.273Z,91.47
2017-05-02T01:35:21.330Z,91.56
2017-05-02T01:36:34.131Z,91.23
2017-05-02T01:37:46.936Z,91.42
2017-05-02T01:38:59.749Z,91.28
2017-05-02T01:40:12.546Z,90.75
2017-05-02T01:41:25.165Z,90.46
2017-05-02T01:42:37.971Z,91.13
2017-05-02T01:43:50.313Z,90.75
2017-05-02T01:45:03.112Z,90.75
2017-05-02T01:46:14.942Z,91.13
2017-05-02T01:47:27.730Z,90.94
2017-05-02T01:48:40.531Z,90.66
2017-05-02T01:49:53.323Z,90.75
2017-05-02T01:51:05.640Z,90.84
2017-05-02T01:52:18.736Z,90.75
2017-05-02T01:53:31.536Z,90.75
2017-05-02T01:54:44.332Z,91.04
2017-05-02T01:55:57.147Z,91.33
2017-05-02T01:57:09.960Z,90.75
2017-05-02T01:58:22.776Z,90.8
2017-05-02T01:59:35.577Z,90.94
2017-05-02T02:00:48.393Z,90.75
2017-05-02T02:02:01.206Z,90.94
2017-05-02T02:03:13.779Z,91.13
2017-05-02T02:04:26.103Z,90.84
2017-05-02T02:05:38.913Z,90.94
2017-05-02T02:06:51.707Z,90.94
2017-05-02T02:08:04.522Z,91.04
2017-05-02T02:09:17.323Z,91.04
2017-05-02T02:10:30.125Z,91.04
2017-05-02T02:11:42.924Z,90.75
2017-05-02T02:12:55.714Z,91.37
2017-05-02T02:14:08.759Z,91.52
2017-05-02T02:15:21.568Z,91.23
2017-05-02T02:16:34.356Z,91.42
2017-05-02T02:17:47.156Z,91.52
2017-05-02T02:18:59.746Z,91.52
2017-05-02T02:20:12.548Z,91.61
2017-05-02T02:21:24.901Z,92.1
2017-05-02T02:22:37.712Z,91.9
2017-05-02T02:23:50.498Z,91.81
2017-05-02T02:25:03.543Z,91.9
2017-05-02T02:26:15.855Z,92.1
2017-05-02T02:27:28.648Z,92.1
2017-05-02T02:28:41.444Z,92
2017-05-02T02:29:54.490Z,91.9
2017-05-02T02:31:06.801Z,91.81
2017-05-02T02:32:19.213Z,92.1
2017-05-02T02:33:32.004Z,92.1
2017-05-02T02:34:44.316Z,92
2017-05-02T02:35:57.106Z,92.19
2017-05-02T02:37:09.417Z,92.1
2017-05-02T02:38:22.217Z,91.9
2017-05-02T02:39:35.021Z,92.48
2017-05-02T02:40:48.107Z,92.38
2017-05-02T02:42:00.896Z,92.1
2017-05-02T02:43:13.686Z,92.48
2017-05-02T02:44:26.481Z,92.48
2017-05-02T02:45:39.296Z,92.48
2017-05-02T02:46:52.343Z,92.48
2017-05-02T02:48:05.132Z,92.48
2017-05-02T02:49:17.445Z,92.48
2017-05-02T02:50:30.264Z,92.38
2017-05-02T02:51:43.347Z,92.57
2017-05-02T02:52:55.652Z,92.38
2017-05-02T02:54:08.434Z,92.67
2017-05-02T02:55:21.239Z,92.96
2017-05-02T02:56:34.031Z,92.96
2017-05-02T02:57:47.116Z,92.96
2017-05-02T02:58:59.434Z,92.43
2017-05-02T03:00:12.231Z,92.77
2017-05-02T03:01:25.014Z,92.29
2017-05-02T03:02:37.802Z,92.33
2017-05-02T03:03:50.113Z,92.77
2017-05-02T03:05:02.915Z,92.67
2017-05-02T03:06:15.225Z,92.48
2017-05-02T03:07:28.014Z,92.33
2017-05-02T03:08:41.068Z,92.63
2017-05-02T03:09:53.860Z,92.48
2017-05-02T03:11:06.178Z,92.29
2017-05-02T03:12:18.975Z,92.19
2017-05-02T03:13:32.059Z,91.9
2017-05-02T03:14:44.845Z,92.19
2017-05-02T03:15:57.632Z,92.29
2017-05-02T03:17:10.416Z,92
2017-05-02T03:18:23.210Z,92.29
2017-05-02T03:19:35.771Z,92.29
2017-05-02T03:20:48.553Z,92.1
2017-05-02T03:22:01.338Z,92.19
2017-05-02T03:23:13.161Z,92.1
2017-05-02T03:24:25.719Z,92.29
2017-05-02T03:25:38.502Z,91.81
2017-05-02T03:26:50.805Z,92.1
2017-05-02T03:28:03.619Z,92.1
2017-05-02T03:29:16.410Z,91.9
2017-05-02T03:30:29.445Z,91.9
2017-05-02T03:31:42.271Z,91.81
2017-05-02T03:32:54.573Z,91.9
2017-05-02T03:34:07.358Z,92.1
2017-05-02T03:35:19.674Z,92.19
2017-05-02T03:36:32.456Z,92.19
2017-05-02T03:37:45.246Z,92.1
2017-05-02T03:38:58.031Z,92
2017-05-02T03:40:10.815Z,92
2017-05-02T03:41:23.596Z,92.1
2017-05-02T03:42:36.379Z,92.1
2017-05-02T03:43:49.167Z,92.1
2017-05-02T03:45:01.468Z,92.1
2017-05-02T03:46:14.257Z,92.19
2017-05-02T03:47:27.046Z,92.48
2017-05-02T03:48:39.836Z,92.29
2017-05-02T03:49:52.157Z,92.57
2017-05-02T03:51:04.941Z,92.57
2017-05-02T03:52:17.721Z,92.77
2017-05-02T03:53:30.032Z,92.77
2017-05-02T03:54:42.350Z,92.96
2017-05-02T03:55:55.133Z,92.86
2017-05-02T03:57:08.166Z,92.67
2017-05-02T03:58:20.467Z,93.05
2017-05-02T03:59:33.251Z,93.34
2017-05-02T04:00:46.043Z,93.34
2017-05-02T04:01:58.864Z,93.44
2017-05-02T04:03:11.421Z,92.57
2017-05-02T04:04:24.208Z,92.77
2017-05-02T04:05:36.994Z,92.86
2017-05-02T04:06:49.777Z,92.96
2017-05-02T04:08:02.554Z,93.05
2017-05-02T04:09:14.372Z,92.96
2017-05-02T04:10:27.156Z,93.25
2017-05-02T04:11:39.946Z,93.25
2017-05-02T04:12:52.735Z,93.15
2017-05-02T04:14:05.520Z,93.05
2017-05-02T04:15:18.312Z,93.34
2017-05-02T04:16:31.116Z,93.25
2017-05-02T04:17:43.896Z,93.34
2017-05-02T04:18:56.679Z,93.15
2017-05-02T04:20:08.976Z,93.25
2017-05-02T04:21:21.288Z,93.34
2017-05-02T04:22:34.101Z,93.05
2017-05-02T04:23:46.886Z,93.05
2017-05-02T04:24:59.669Z,93.15
2017-05-02T04:26:12.457Z,92.96
2017-05-02T04:27:24.759Z,93.73
2017-05-02T04:28:37.539Z,94.01
2017-05-02T04:29:50.323Z,94.11
2017-05-02T04:31:03.120Z,93.92
2017-05-02T04:32:15.423Z,94.11
2017-05-02T04:33:28.207Z,93.82
2017-05-02T04:34:40.989Z,94.11
2017-05-02T04:35:53.593Z,94.31
2017-05-02T04:37:06.377Z,94.4
2017-05-02T04:38:18.675Z,94.49
2017-05-02T04:39:30.978Z,94.88
2017-05-02T04:40:43.764Z,94.93
2017-05-02T04:41:56.548Z,94.88
2017-05-02T04:43:09.330Z,94.49
2017-05-02T04:44:22.123Z,95.36
2017-05-02T04:45:34.911Z,95.36
2017-05-02T04:46:47.689Z,95.36
2017-05-02T04:48:00.003Z,95.65
2017-05-02T04:49:12.785Z,95.36
2017-05-02T04:50:25.572Z,95.65
2017-05-02T04:51:38.126Z,95.65
2017-05-02T04:52:50.906Z,95.55
2017-05-02T04:54:03.694Z,95.75
2017-05-02T04:55:15.516Z,95.65
2017-05-02T04:56:28.298Z,95.75
2017-05-02T04:57:41.081Z,95.75
2017-05-02T04:58:53.384Z,95.45
2017-05-02T05:00:05.693Z,95.84
2017-05-02T05:01:18.476Z,96.03
2017-05-02T05:02:31.510Z,96.18
2017-05-02T05:03:44.302Z,96.94
2017-05-02T05:04:57.093Z,97.14
2017-05-02T05:06:09.395Z,97.04
2017-05-02T05:07:22.187Z,96.75
2017-05-02T05:08:34.972Z,96.75
2017-05-02T05:09:47.756Z,97.24
2017-05-02T05:11:00.537Z,97.14
2017-05-02T05:12:13.323Z,97.04
2017-05-02T05:13:26.409Z,97.24
2017-05-02T05:14:39.197Z,97.52
2017-05-02T05:15:51.978Z,97.24
2017-05-02T05:17:04.278Z,96.94
2017-05-02T05:18:17.065Z,97.42
2017-05-02T05:19:30.102Z,97.04
2017-05-02T05:20:42.888Z,97.14
2017-05-02T05:21:55.673Z,97.04
2017-05-02T05:23:08.453Z,97.81
2017-05-02T05:24:21.006Z,98
2017-05-02T05:25:33.789Z,98.29
2017-05-02T05:26:46.573Z,97.91
2017-05-02T05:27:58.870Z,98.1
2017-05-02T05:29:11.658Z,99.05
2017-05-02T05:30:24.743Z,99.34
2017-05-02T05:31:37.527Z,99.96
2017-05-02T05:32:50.307Z,99.58
2017-05-02T05:34:02.608Z,99.99
2017-05-02T05:35:15.389Z,99.99
2017-05-02T05:36:28.176Z,99.99
2017-05-02T05:37:40.961Z,99.99
2017-05-02T05:38:53.753Z,99.99
2017-05-02T05:40:06.538Z,99.99
2017-05-02T05:41:32.909Z,99.99
2017-05-02T05:42:45.687Z,99.99
2017-05-02T05:43:58.468Z,99.99
2017-05-02T05:45:11.255Z,99.99
2017-05-02T05:46:23.076Z,99.99
2017-05-02T05:47:35.865Z,99.99
2017-05-02T05:48:48.651Z,99.99
2017-05-02T05:50:01.432Z,99.96
2017-05-02T05:51:13.265Z,99.99
2017-05-02T05:52:25.575Z,99.49
2017-05-02T05:53:38.363Z,99.82
2017-05-02T05:54:51.144Z,99.58
2017-05-02T05:56:03.926Z,99.96
2017-05-02T05:57:16.252Z,98.86
2017-05-02T05:58:29.040Z,99.96
2017-05-02T05:59:41.353Z,99.87
2017-05-02T06:00:53.654Z,99.58
2017-05-02T06:02:06.734Z,99.99
2017-05-02T06:03:19.515Z,99.99
2017-05-02T06:04:32.294Z,99.99
2017-05-02T06:05:45.077Z,99.99
2017-05-02T06:06:57.852Z,99.99
2017-05-02T06:08:10.152Z,99.99
2017-05-02T06:09:22.937Z,99.99
2017-05-02T06:10:35.720Z,99.96
2017-05-02T06:11:48.503Z,99.96
2017-05-02T06:13:01.288Z,99.39
2017-05-02T06:14:14.079Z,99.87
2017-05-02T06:15:26.387Z,99.58
2017-05-02T06:16:38.687Z,99.49
2017-05-02T06:17:51.472Z,99.87
2017-05-02T06:19:04.258Z,99.77
2017-05-02T06:20:16.563Z,99.58
2017-05-02T06:21:28.867Z,99.87
2017-05-02T06:22:41.649Z,99.68
2017-05-02T06:23:54.730Z,99.68
2017-05-02T06:25:07.510Z,99.87
2017-05-02T06:26:20.289Z,99.58
2017-05-02T06:27:33.075Z,99.87
2017-05-02T06:28:45.856Z,99.01
2017-05-02T06:29:58.645Z,99.1
2017-05-02T06:31:11.426Z,99.05
2017-05-02T06:32:24.217Z,99.73
2017-05-02T06:33:36.518Z,99.99
2017-05-02T06:34:49.306Z,99.49
2017-05-02T06:36:02.087Z,99.77
2017-05-02T06:37:14.385Z,99.68
2017-05-02T06:38:26.200Z,99.77
2017-05-02T06:39:38.502Z,99.99
2017-05-02T06:40:51.050Z,99.99
2017-05-02T06:42:03.833Z,99.77
2017-05-02T06:43:15.653Z,99.58
2017-05-02T06:44:28.435Z,99.87
2017-05-02T06:45:41.258Z,99.87
2017-05-02T06:46:53.555Z,99.68
2017-05-02T06:48:05.370Z,99.1
2017-05-02T06:49:18.161Z,99.92
2017-05-02T06:50:30.476Z,99.2
2017-05-02T06:51:43.509Z,99.49
2017-05-02T06:52:55.812Z,99.96
2017-05-02T06:54:08.112Z,99.77
2017-05-02T06:55:20.410Z,99.49
2017-05-02T06:56:32.708Z,99.49
2017-05-02T06:57:45.490Z,99.87
2017-05-02T06:58:58.280Z,99.96
2017-05-02T07:00:11.064Z,99.68
2017-05-02T07:01:23.370Z,99.87
2017-05-02T07:02:35.673Z,98.91
2017-05-02T07:03:48.456Z,99.25
2017-05-02T07:05:00.759Z,99.01
2017-05-02T07:06:13.541Z,98.96
2017-05-02T07:07:26.624Z,98.96
2017-05-02T07:08:38.922Z,98.77
2017-05-02T07:09:51.709Z,98.58
2017-05-02T07:11:04.016Z,98.67
2017-05-02T07:12:16.807Z,98.67
2017-05-02T07:13:29.107Z,98.38
2017-05-02T07:14:41.929Z,98.86
2017-05-02T07:15:54.710Z,98.58
2017-05-02T07:17:07.017Z,98.48
2017-05-02T07:18:20.050Z,98.48
2017-05-02T07:19:32.842Z,98.38
2017-05-02T07:20:45.690Z,98.58
2017-05-02T07:21:58.485Z,98.58
2017-05-02T07:23:11.281Z,98.58
2017-05-02T07:24:24.077Z,98.48
2017-05-02T07:25:36.864Z,98.86
2017-05-02T07:26:49.652Z,98.38
2017-05-02T07:28:02.443Z,98.38
2017-05-02T07:29:15.491Z,98.77
2017-05-02T07:30:28.282Z,98.19
2017-05-02T07:31:41.073Z,98
2017-05-02T07:32:53.868Z,98
2017-05-02T07:34:06.661Z,98.1
2017-05-02T07:35:19.457Z,98.1
2017-05-02T07:36:31.773Z,97.52
2017-05-02T07:37:44.567Z,97.61
2017-05-02T07:38:57.363Z,97.71
2017-05-02T07:40:09.189Z,97.61
2017-05-02T07:41:21.497Z,97.81
2017-05-02T07:42:34.309Z,97.52
2017-05-02T07:43:46.629Z,97.71
2017-05-02T07:44:59.423Z,97.52
2017-05-02T07:46:12.474Z,97.81
2017-05-02T07:47:25.295Z,97.14
2017-05-02T07:48:38.095Z,97.33
2017-05-02T07:49:50.899Z,96.94
2017-05-02T07:51:03.993Z,97.04
2017-05-02T07:52:16.782Z,97.04
2017-05-02T07:53:29.579Z,96.94
2017-05-02T07:54:42.366Z,97.33
2017-05-02T07:55:55.149Z,97.14
2017-05-02T07:57:08.235Z,97.14
2017-05-02T07:58:20.064Z,96.75
2017-05-02T07:59:32.371Z,96.66
2017-05-02T08:00:44.673Z,96.56
2017-05-02T08:01:57.714Z,96.47
2017-05-02T08:03:10.506Z,97.04
2017-05-02T08:04:23.315Z,96.47
2017-05-02T08:05:36.105Z,96.66
2017-05-02T08:06:48.894Z,96.56
2017-05-02T08:08:01.207Z,96.66
2017-05-02T08:09:13.512Z,96.47
2017-05-02T08:10:25.338Z,96.47
2017-05-02T08:11:38.120Z,96.47
2017-05-02T08:12:50.906Z,96.56
2017-05-02T08:14:03.706Z,96.27
2017-05-02T08:15:16.013Z,96.56
2017-05-02T08:16:28.314Z,96.27
2017-05-02T08:17:41.117Z,96.66
2017-05-02T08:18:53.428Z,96.94
2017-05-02T08:20:05.739Z,96.56
2017-05-02T08:21:18.526Z,96.47
2017-05-02T08:22:31.329Z,96.47
2017-05-02T08:23:44.124Z,95.98
2017-05-02T08:24:56.922Z,96.18
2017-05-02T08:26:09.707Z,95.98
2017-05-02T08:27:22.494Z,96.27
2017-05-02T08:28:35.294Z,95.79
2017-05-02T08:29:48.340Z,95.7
2017-05-02T08:31:00.656Z,95.89
2017-05-02T08:32:12.961Z,96.27
2017-05-02T08:33:25.278Z,96.37
2017-05-02T08:34:38.325Z,95.21
2017-05-02T08:35:50.638Z,95.89
2017-05-02T08:37:03.423Z,95.98
2017-05-02T08:38:15.735Z,96.47
2017-05-02T08:39:28.536Z,95.6
2017-05-02T08:40:41.328Z,96.27
2017-05-02T08:41:54.133Z,96.18
2017-05-02T08:43:06.923Z,96.18
2017-05-02T08:44:19.716Z,95.89
2017-05-02T08:45:32.763Z,95.98
2017-05-02T08:46:45.073Z,95.31
2017-05-02T08:47:57.868Z,95.5
2017-05-02T08:49:10.664Z,95.41
2017-05-02T08:50:23.460Z,95.03
2017-05-02T08:51:36.019Z,95.41
2017-05-02T08:52:48.808Z,95.41
2017-05-02T08:54:01.598Z,95.6
2017-05-02T08:55:14.401Z,95.12
2017-05-02T08:56:27.187Z,95.5
2017-05-02T08:57:39.972Z,95.41
2017-05-02T08:58:52.762Z,95.5
2017-05-02T09:00:05.554Z,95.41
2017-05-02T09:01:18.347Z,94.83
2017-05-02T09:02:31.148Z,95.21
2017-05-02T09:03:43.951Z,95.41
2017-05-02T09:04:56.748Z,95.7
2017-05-02T09:06:09.056Z,94.74
2017-05-02T09:07:22.106Z,95.21
2017-05-02T09:08:34.888Z,95.31
2017-05-02T09:09:47.668Z,94.78
2017-05-02T09:11:00.450Z,94.74
2017-05-02T09:12:12.267Z,94.78
2017-05-02T09:13:24.090Z,95.07
2017-05-02T09:14:36.878Z,94.98
2017-05-02T09:15:48.700Z,95.03
2017-05-02T09:17:01.481Z,95.03
2017-05-02T09:18:14.262Z,95.6
2017-05-02T09:19:27.054Z,95.21
2017-05-02T09:20:39.866Z,95.03
2017-05-02T09:21:52.648Z,95.79
2017-05-02T09:23:05.433Z,95.5
2017-05-02T09:24:18.237Z,95.6
2017-05-02T09:25:31.024Z,95.31
2017-05-02T09:26:43.806Z,95.21
2017-05-02T09:27:56.588Z,95.6
2017-05-02T09:29:09.367Z,95.5
2017-05-02T09:30:22.188Z,95.6
2017-05-02T09:31:34.966Z,95.6
2017-05-02T09:32:47.263Z,96.18
2017-05-02T09:34:00.090Z,95.7
2017-05-02T09:35:12.882Z,95.98
2017-05-02T09:36:24.730Z,95.6
2017-05-02T09:37:37.509Z,95.7
2017-05-02T09:38:49.810Z,95.5
2017-05-02T09:40:02.369Z,95.41
2017-05-02T09:41:14.667Z,94.54
2017-05-02T09:42:26.964Z,94.74
2017-05-02T09:43:39.273Z,95.07
2017-05-02T09:44:52.053Z,94.98
2017-05-02T09:46:05.088Z,94.88
2017-05-02T09:47:16.906Z,94.69
2017-05-02T09:48:29.692Z,94.69
2017-05-02T09:49:41.999Z,94.98
2017-05-02T09:50:54.306Z,94.98
2017-05-02T09:52:07.086Z,94.74
2017-05-02T09:53:19.396Z,95.41
2017-05-02T09:54:32.194Z,95.21
2017-05-02T09:55:44.503Z,95.41
2017-05-02T09:56:57.597Z,95.55
2017-05-02T09:58:09.904Z,95.26
2017-05-02T09:59:22.714Z,94.74
2017-05-02T10:00:35.506Z,94.69
2017-05-02T10:01:47.814Z,94.78
2017-05-02T10:03:00.613Z,94.78
2017-05-02T10:04:12.917Z,94.88
2017-05-02T10:05:25.222Z,94.69
2017-05-02T10:06:38.016Z,94.78
2017-05-02T10:07:51.063Z,95.36
2017-05-02T10:09:03.869Z,94.59
2017-05-02T10:10:16.662Z,94.98
2017-05-02T10:11:29.449Z,95.07
2017-05-02T10:12:42.014Z,95.55
2017-05-02T10:13:54.317Z,95.26
2017-05-02T10:15:05.670Z,94.78
2017-05-02T10:16:18.474Z,94.69
2017-05-02T10:17:30.783Z,94.69
2017-05-02T10:18:43.830Z,94.88
2017-05-02T10:19:56.143Z,94.88
2017-05-02T10:21:08.465Z,94.69
2017-05-02T10:22:20.775Z,95.17
2017-05-02T10:23:32.859Z,94.69
2017-05-02T10:24:45.176Z,94.69
2017-05-02T10:25:57.963Z,94.88
2017-05-02T10:27:10.758Z,95.45
2017-05-02T10:28:23.069Z,95.45
2017-05-02T10:29:35.382Z,95.45
2017-05-02T10:30:47.687Z,95.26
2017-05-02T10:31:59.511Z,94.49
2017-05-02T10:33:11.821Z,94.88
2017-05-02T10:34:24.132Z,94.88
2017-05-02T10:35:36.438Z,94.98
2017-05-02T10:36:48.752Z,94.78
2017-05-02T10:38:01.546Z,94.59
2017-05-02T10:39:14.342Z,95.65
2017-05-02T10:40:27.146Z,95.26
2017-05-02T10:41:39.938Z,95.5
2017-05-02T10:42:52.248Z,95.65
2017-05-02T10:44:05.037Z,95.5
2017-05-02T10:45:18.131Z,95.07
2017-05-02T10:46:30.921Z,95.07
2017-05-02T10:47:43.715Z,95.45
2017-05-02T10:48:56.028Z,95.31
2017-05-02T10:50:08.833Z,95.21
2017-05-02T10:51:21.644Z,95.07
2017-05-02T10:52:34.436Z,95.75
2017-05-02T10:53:47.244Z,95.26
2017-05-02T10:54:59.584Z,95.17
2017-05-02T10:56:12.379Z,95.65
2017-05-02T10:57:23.727Z,94.69
2017-05-02T10:58:36.041Z,94.21
2017-05-02T10:59:48.842Z,93.54
2017-05-02T11:01:01.632Z,93.92
2017-05-02T11:02:14.416Z,93.73
2017-05-02T11:03:26.722Z,94.59
2017-05-02T11:04:39.516Z,94.21
2017-05-02T11:05:52.325Z,94.59
2017-05-02T11:07:04.945Z,95.36
2017-05-02T11:08:17.737Z,94.49
2017-05-02T11:09:30.537Z,94.4
2017-05-02T11:10:43.334Z,94.83
2017-05-02T11:11:56.125Z,94.88
2017-05-02T11:13:08.930Z,94.31
2017-05-02T11:14:21.252Z,94.21
2017-05-02T11:15:34.045Z,94.21
2017-05-02T11:16:46.832Z,94.4
2017-05-02T11:17:59.145Z,94.49
2017-05-02T11:19:11.935Z,93.63
2017-05-02T11:20:24.732Z,93.92
2017-05-02T11:21:37.526Z,93.92
2017-05-02T11:22:50.320Z,93.73
2017-05-02T11:24:02.155Z,93.73
2017-05-02T11:25:14.493Z,93.87
2017-05-02T11:26:26.806Z,93.1
2017-05-02T11:27:39.750Z,92.81
2017-05-02T11:28:52.078Z,92.43
2017-05-02T11:30:04.880Z,92.24
2017-05-02T11:31:17.665Z,92.05
2017-05-02T11:32:29.016Z,92.05
2017-05-02T11:33:41.814Z,92.43
2017-05-02T11:34:54.608Z,92.24
2017-05-02T11:36:06.928Z,91.95
2017-05-02T11:37:19.235Z,91.85
2017-05-02T11:38:32.027Z,91.47
2017-05-02T11:39:44.824Z,91.66
2017-05-02T11:40:57.141Z,90.89
2017-05-02T11:42:09.453Z,91.37
2017-05-02T11:43:21.764Z,91.75
2017-05-02T11:44:34.560Z,91.08
2017-05-02T11:45:47.358Z,91.28
2017-05-02T11:47:00.160Z,91.47
2017-05-02T11:48:12.955Z,91.75
2017-05-02T11:49:25.581Z,90.89
2017-05-02T11:50:38.375Z,90.8
2017-05-02T11:51:50.689Z,90.6
2017-05-02T11:53:03.008Z,90.65
2017-05-02T11:54:15.812Z,90.45
2017-05-02T11:55:28.129Z,90.84
2017-05-02T11:56:40.960Z,90.55
2017-05-02T11:57:53.762Z,90.65
2017-05-02T11:59:06.564Z,90.55
2017-05-02T12:00:19.185Z,90.45
2017-05-02T12:01:31.983Z,90.65
2017-05-02T12:02:44.296Z,90.45
2017-05-02T12:03:56.613Z,89.98
2017-05-02T12:05:09.409Z,90.26
2017-05-02T12:06:22.214Z,90.65
2017-05-02T12:07:35.191Z,90.36
2017-05-02T12:08:47.997Z,90.55
2017-05-02T12:10:00.799Z,89.69
2017-05-02T12:11:13.597Z,89.59
2017-05-02T12:12:26.393Z,89.59
2017-05-02T12:13:38.963Z,89.3
2017-05-02T12:14:51.772Z,88.92
2017-05-02T12:16:04.574Z,89.44
2017-05-02T12:17:16.888Z,89.15
2017-05-02T12:18:29.210Z,89.3
2017-05-02T12:19:42.004Z,89.21
2017-05-02T12:20:54.808Z,88.92
2017-05-02T12:22:07.607Z,89.06
2017-05-02T12:23:19.923Z,88.87
2017-05-02T12:24:31.755Z,88.39
2017-05-02T12:25:44.554Z,88
2017-05-02T12:26:56.866Z,87.52
2017-05-02T12:28:09.183Z,85.98
2017-05-02T12:29:21.973Z,86.65
2017-05-02T12:30:34.764Z,86.69
2017-05-02T12:31:47.567Z,86.41
2017-05-02T12:33:00.364Z,86.41
2017-05-02T12:34:12.192Z,86.89
2017-05-02T12:35:24.980Z,86.89
2017-05-02T12:36:37.772Z,86.12
2017-05-02T12:37:50.575Z,86.79
2017-05-02T12:39:03.368Z,86.41
2017-05-02T12:40:15.679Z,86.31
2017-05-02T12:41:27.994Z,86.12
2017-05-02T12:42:40.802Z,85.78
2017-05-02T12:43:53.608Z,85.58
2017-05-02T12:45:06.405Z,85.2
2017-05-02T12:46:19.195Z,85
2017-05-02T12:47:31.512Z,85.1
2017-05-02T12:48:44.305Z,85.58
2017-05-02T12:49:57.397Z,85.3
2017-05-02T12:51:09.715Z,84.53
2017-05-02T12:52:21.540Z,82.98
2017-05-02T12:53:34.335Z,82.89
2017-05-02T12:56:46.601Z,83.37
2017-05-02T12:57:58.914Z,83.28
2017-05-02T12:59:11.710Z,83.61
2017-05-02T13:00:24.507Z,84.09
2017-05-02T13:01:37.306Z,83.41
2017-05-02T13:02:49.863Z,83.66
2017-05-02T13:04:02.657Z,83.22
2017-05-02T13:05:14.494Z,83.47
2017-05-02T13:06:27.282Z,83.28
2017-05-02T13:07:39.601Z,83.95
2017-05-02T13:08:52.687Z,84.14
2017-05-02T13:10:05.496Z,84.05
2017-05-02T13:11:17.807Z,83.85
2017-05-02T13:12:30.131Z,83.85
2017-05-02T13:13:42.449Z,83.31
2017-05-02T13:14:55.248Z,83.7
2017-05-02T13:16:08.051Z,83.61
2017-05-02T13:17:20.847Z,82.83
2017-05-02T13:18:33.156Z,82.26
2017-05-02T13:21:26.421Z,81.62
2017-05-02T13:22:39.208Z,81.52
2017-05-02T13:23:52.011Z,80.76
2017-05-02T13:25:04.804Z,79.74
2017-05-02T13:26:17.118Z,79.44
2017-05-02T13:27:29.916Z,80.31
2017-05-02T13:28:42.235Z,79.93
2017-05-02T13:29:55.034Z,78.71
2017-05-02T13:31:07.840Z,79.58
2017-05-02T13:32:20.641Z,78.42
2017-05-02T13:33:32.957Z,78.33
2017-05-02T13:34:45.754Z,77.78
2017-05-02T13:35:58.553Z,77.78
2017-05-02T13:37:10.875Z,76.92
2017-05-02T13:38:23.662Z,77.5
2017-05-02T13:39:35.970Z,77.3
2017-05-02T13:40:48.760Z,77.21
2017-05-02T13:42:01.557Z,77.11
2017-05-02T13:43:13.871Z,75.95
2017-05-02T13:44:26.494Z,75.02
2017-05-02T13:45:38.811Z,74.73
2017-05-02T13:46:51.624Z,74.64
2017-05-02T13:48:04.428Z,75.22
2017-05-02T13:49:16.741Z,72.74
2017-05-02T13:50:29.366Z,72.84
2017-05-02T13:51:41.198Z,73.32
2017-05-02T13:52:54.001Z,74.44
2017-05-02T13:54:06.794Z,74.73
2017-05-02T13:55:19.886Z,75.12
2017-05-02T13:56:32.196Z,74.87
2017-05-02T13:57:44.996Z,73.13
2017-05-02T13:58:57.793Z,73.42
2017-05-02T14:00:10.585Z,73.32
2017-05-02T14:01:23.381Z,73.71
2017-05-02T14:02:36.183Z,72.26
2017-05-02T14:03:49.196Z,72.84
2017-05-02T14:05:01.990Z,72.45
2017-05-02T14:06:14.787Z,71.91
2017-05-02T14:07:41.659Z,72.39
2017-05-02T14:08:54.496Z,72.2
2017-05-02T14:10:21.364Z,72.58
2017-05-02T14:11:33.672Z,71.33
2017-05-02T14:12:45.984Z,72.39
2017-05-02T14:13:58.306Z,72.64
2017-05-02T14:15:11.111Z,73.03
2017-05-02T14:16:23.902Z,73.13
2017-05-02T14:17:36.215Z,72.36
2017-05-02T14:18:48.538Z,72.61
2017-05-02T14:20:01.341Z,73.09
2017-05-02T14:21:14.139Z,73.22
2017-05-02T14:22:26.936Z,73.32
2017-05-02T14:23:39.731Z,73.13
2017-05-02T14:24:51.562Z,73.22
2017-05-02T14:26:04.354Z,73.32
2017-05-02T14:27:17.718Z,73.26
2017-05-02T14:28:30.513Z,72.39
2017-05-02T14:29:43.314Z,72.3
2017-05-02T14:30:56.113Z,70.94
2017-05-02T14:32:08.907Z,70.98
2017-05-02T14:33:21.705Z,70.1
2017-05-02T14:34:34.509Z,69.53
2017-05-02T14:35:47.571Z,69.08
2017-05-02T14:37:00.376Z,69.72
2017-05-02T14:38:12.685Z,69.62
2017-05-02T14:39:24.529Z,69.66
2017-05-02T14:40:37.625Z,70.3
2017-05-02T14:41:50.415Z,70.75
2017-05-02T14:43:03.205Z,70.3
2017-05-02T14:44:15.037Z,69.72
2017-05-02T14:45:27.837Z,69.82
2017-05-02T14:46:40.631Z,70.01
2017-05-02T14:47:52.945Z,70.36
2017-05-02T14:49:05.520Z,70.3
2017-05-02T14:50:18.326Z,69.88
2017-05-02T14:51:31.130Z,69.92
2017-05-02T14:52:43.932Z,70.4
2017-05-02T14:53:56.733Z,69.92
2017-05-02T14:55:09.053Z,70.56
2017-05-02T14:56:21.364Z,70.75
2017-05-02T14:57:34.170Z,71.48
2017-05-02T14:58:46.963Z,71.3
2017-05-02T14:59:59.761Z,71.3
2017-05-02T15:01:12.561Z,71.3
2017-05-02T15:02:24.872Z,71.58
2017-05-02T15:03:37.673Z,71.2
2017-05-02T15:04:50.474Z,71.48
2017-05-02T15:06:03.316Z,72.06
2017-05-02T15:07:16.119Z,71.97
2017-05-02T15:08:28.913Z,72.74
2017-05-02T15:09:41.224Z,72.06
2017-05-02T15:11:08.088Z,71.74
2017-05-02T15:12:34.948Z,73.09
2017-05-02T15:13:47.737Z,73.38
2017-05-02T15:15:00.775Z,73.06
2017-05-02T15:16:13.559Z,73.19
2017-05-02T15:17:26.349Z,73.73
2017-05-02T15:18:38.661Z,73.83
2017-05-02T15:19:51.452Z,74.41
2017-05-02T15:21:04.257Z,73.63
2017-05-02T15:22:17.043Z,74.31
2017-05-02T15:23:28.864Z,74.02
2017-05-02T15:24:41.647Z,73.83
2017-05-02T15:25:54.106Z,73.44
2017-05-02T15:27:06.420Z,74.16
2017-05-02T15:28:19.214Z,73.96
2017-05-02T15:29:32.008Z,73.48
2017-05-02T15:30:44.791Z,73.48
2017-05-02T15:31:57.828Z,73.28
2017-05-02T15:33:10.616Z,72.22
2017-05-02T15:34:22.918Z,72.61
2017-05-02T15:35:35.225Z,71.74
2017-05-02T15:36:47.532Z,71.45
2017-05-02T15:37:59.845Z,71.74
2017-05-02T15:39:12.639Z,71.84
2017-05-02T15:40:24.953Z,72.22
2017-05-02T15:41:37.745Z,72.42
2017-05-02T15:42:50.530Z,73.38
2017-05-02T15:44:02.845Z,71.84
2017-05-02T15:45:15.153Z,71.84